sensor_id;sensor_type;location;lat;lon;timestamp;P1;P2;P0
76661;PMS5003;65579;45.534;6.212;2022-12-28T00:02:11;46;44;
76661;PMS5003;65579;45.534;6.212;2022-12-28T00:04:36;51;46;
76661;PMS5003;65579;45.534;6.212;2022-12-28T00:07:02;38;35;
76661;PMS5003;65579;45.534;6.212;2022-12-28T00:09:27;42;42;
76661;PMS5003;65579;45.534;6.212;2022-12-28T00:11:52;39;38;
76661;PMS5003;65579;45.534;6.212;2022-12-28T00:14:18;38;38;
76661;PMS5003;65579;45.534;6.212;2022-12-28T00:16:44;34;33;
76661;PMS5003;65579;45.534;6.212;2022-12-28T00:19:10;43;35;
76661;PMS5003;65579;45.534;6.212;2022-12-28T00:21:34;49;44;
76661;PMS5003;65579;45.534;6.212;2022-12-28T00:24:00;42;41;
76661;PMS5003;65579;45.534;6.212;2022-12-28T00:26:25;39;36;
76661;PMS5003;65579;45.534;6.212;2022-12-28T00:28:51;43;39;
76661;PMS5003;65579;45.534;6.212;2022-12-28T00:31:16;47;42;
76661;PMS5003;65579;45.534;6.212;2022-12-28T00:33:42;49;47;
76661;PMS5003;65579;45.534;6.212;2022-12-28T00:36:09;53;46;
76661;PMS5003;65579;45.534;6.212;2022-12-28T00:38:34;56;47;
76661;PMS5003;65579;45.534;6.212;2022-12-28T00:40:59;51;46;
76661;PMS5003;65579;45.534;6.212;2022-12-28T00:43:25;45;42;
76661;PMS5003;65579;45.534;6.212;2022-12-28T00:45:50;40;38;
76661;PMS5003;65579;45.534;6.212;2022-12-28T00:48:15;47;43;
76661;PMS5003;65579;45.534;6.212;2022-12-28T00:50:41;52;42;
76661;PMS5003;65579;45.534;6.212;2022-12-28T00:53:07;45;38;
76661;PMS5003;65579;45.534;6.212;2022-12-28T00:55:32;38;37;
76661;PMS5003;65579;45.534;6.212;2022-12-28T00:57:58;37;32;
76661;PMS5003;65579;45.534;6.212;2022-12-28T01:00:23;34;31;
76661;PMS5003;65579;45.534;6.212;2022-12-28T01:02:48;35;35;
76661;PMS5003;65579;45.534;6.212;2022-12-28T01:05:13;34;31;
76661;PMS5003;65579;45.534;6.212;2022-12-28T01:07:39;42;38;
76661;PMS5003;65579;45.534;6.212;2022-12-28T01:10:04;38;36;
76661;PMS5003;65579;45.534;6.212;2022-12-28T01:12:30;68;63;
76661;PMS5003;65579;45.534;6.212;2022-12-28T01:14:55;52;42;
76661;PMS5003;65579;45.534;6.212;2022-12-28T01:17:20;51;41;
76661;PMS5003;65579;45.534;6.212;2022-12-28T01:19:45;37;33;
76661;PMS5003;65579;45.534;6.212;2022-12-28T01:22:11;36;32;
76661;PMS5003;65579;45.534;6.212;2022-12-28T01:24:37;37;34;
76661;PMS5003;65579;45.534;6.212;2022-12-28T01:27:03;41;41;
76661;PMS5003;65579;45.534;6.212;2022-12-28T01:29:28;46;42;
76661;PMS5003;65579;45.534;6.212;2022-12-28T01:31:54;39;35;
76661;PMS5003;65579;45.534;6.212;2022-12-28T01:34:19;41;38;
76661;PMS5003;65579;45.534;6.212;2022-12-28T01:36:49;39;39;
76661;PMS5003;65579;45.534;6.212;2022-12-28T01:39:10;50;40;
76661;PMS5003;65579;45.534;6.212;2022-12-28T01:41:36;51;49;
76661;PMS5003;65579;45.534;6.212;2022-12-28T01:46:28;51;45;
76661;PMS5003;65579;45.534;6.212;2022-12-28T01:48:56;50;43;
76661;PMS5003;65579;45.534;6.212;2022-12-28T01:51:18;40;36;
76661;PMS5003;65579;45.534;6.212;2022-12-28T01:53:43;53;46;
76661;PMS5003;65579;45.534;6.212;2022-12-28T01:56:08;59;51;
76661;PMS5003;65579;45.534;6.212;2022-12-28T01:58:33;53;49;
76661;PMS5003;65579;45.534;6.212;2022-12-28T02:00:58;48;46;
76661;PMS5003;65579;45.534;6.212;2022-12-28T02:03:25;55;55;
76661;PMS5003;65579;45.534;6.212;2022-12-28T02:05:50;55;44;
76661;PMS5003;65579;45.534;6.212;2022-12-28T02:08:17;55;46;
76661;PMS5003;65579;45.534;6.212;2022-12-28T02:10:40;50;48;
76661;PMS5003;65579;45.534;6.212;2022-12-28T02:13:05;34;33;
76661;PMS5003;65579;45.534;6.212;2022-12-28T02:15:31;40;36;
76661;PMS5003;65579;45.534;6.212;2022-12-28T02:17:56;32;29;
76661;PMS5003;65579;45.534;6.212;2022-12-28T02:20:22;33;31;
76661;PMS5003;65579;45.534;6.212;2022-12-28T02:25:19;33;30;
76661;PMS5003;65579;45.534;6.212;2022-12-28T02:27:39;37;35;
76661;PMS5003;65579;45.534;6.212;2022-12-28T02:30:05;43;37;
76661;PMS5003;65579;45.534;6.212;2022-12-28T02:32:33;31;28;
76661;PMS5003;65579;45.534;6.212;2022-12-28T02:34:56;44;40;
76661;PMS5003;65579;45.534;6.212;2022-12-28T02:37:20;35;30;
76661;PMS5003;65579;45.534;6.212;2022-12-28T02:39:46;47;39;
76661;PMS5003;65579;45.534;6.212;2022-12-28T02:42:10;32;30;
76661;PMS5003;65579;45.534;6.212;2022-12-28T02:44:35;36;33;
76661;PMS5003;65579;45.534;6.212;2022-12-28T02:47:00;44;37;
76661;PMS5003;65579;45.534;6.212;2022-12-28T02:49:26;49;47;
76661;PMS5003;65579;45.534;6.212;2022-12-28T02:51:55;37;37;
76661;PMS5003;65579;45.534;6.212;2022-12-28T02:54:30;44;39;
76661;PMS5003;65579;45.534;6.212;2022-12-28T02:56:45;40;34;
76661;PMS5003;65579;45.534;6.212;2022-12-28T02:59:12;33;33;
76661;PMS5003;65579;45.534;6.212;2022-12-28T03:01:38;46;40;
76661;PMS5003;65579;45.534;6.212;2022-12-28T03:04:02;33;28;
76661;PMS5003;65579;45.534;6.212;2022-12-28T03:06:27;24;19;
76661;PMS5003;65579;45.534;6.212;2022-12-28T03:08:52;18;18;
76661;PMS5003;65579;45.534;6.212;2022-12-28T03:11:16;21;19;
76661;PMS5003;65579;45.534;6.212;2022-12-28T03:13:41;27;25;
76661;PMS5003;65579;45.534;6.212;2022-12-28T03:16:07;23;20;
76661;PMS5003;65579;45.534;6.212;2022-12-28T03:18:31;26;24;
76661;PMS5003;65579;45.534;6.212;2022-12-28T03:20:57;19;19;
76661;PMS5003;65579;45.534;6.212;2022-12-28T03:23:21;26;20;
76661;PMS5003;65579;45.534;6.212;2022-12-28T03:25:47;34;27;
76661;PMS5003;65579;45.534;6.212;2022-12-28T03:28:13;24;24;
76661;PMS5003;65579;45.534;6.212;2022-12-28T03:30:38;35;27;
76661;PMS5003;65579;45.534;6.212;2022-12-28T03:33:04;32;25;
76661;PMS5003;65579;45.534;6.212;2022-12-28T03:35:31;27;26;
76661;PMS5003;65579;45.534;6.212;2022-12-28T03:37:55;27;26;
76661;PMS5003;65579;45.534;6.212;2022-12-28T03:40:22;23;23;
76661;PMS5003;65579;45.534;6.212;2022-12-28T03:42:47;32;31;
76661;PMS5003;65579;45.534;6.212;2022-12-28T03:45:11;35;32;
76661;PMS5003;65579;45.534;6.212;2022-12-28T03:47:37;34;33;
76661;PMS5003;65579;45.534;6.212;2022-12-28T03:50:02;31;30;
76661;PMS5003;65579;45.534;6.212;2022-12-28T03:52:27;33;32;
76661;PMS5003;65579;45.534;6.212;2022-12-28T03:54:53;27;24;
76661;PMS5003;65579;45.534;6.212;2022-12-28T03:57:20;24;19;
76661;PMS5003;65579;45.534;6.212;2022-12-28T03:59:45;27;18;
76661;PMS5003;65579;45.534;6.212;2022-12-28T04:02:09;19;18;
76661;PMS5003;65579;45.534;6.212;2022-12-28T04:04:35;29;24;
76661;PMS5003;65579;45.534;6.212;2022-12-28T04:07:01;25;24;
76661;PMS5003;65579;45.534;6.212;2022-12-28T04:09:27;24;22;
76661;PMS5003;65579;45.534;6.212;2022-12-28T04:11:52;19;17;
76661;PMS5003;65579;45.534;6.212;2022-12-28T04:14:18;23;22;
76661;PMS5003;65579;45.534;6.212;2022-12-28T04:16:43;27;20;
76661;PMS5003;65579;45.534;6.212;2022-12-28T04:19:08;29;20;
76661;PMS5003;65579;45.534;6.212;2022-12-28T04:21:34;24;22;
76661;PMS5003;65579;45.534;6.212;2022-12-28T04:23:59;35;26;
76661;PMS5003;65579;45.534;6.212;2022-12-28T04:26:25;24;19;
76661;PMS5003;65579;45.534;6.212;2022-12-28T04:28:51;15;15;
76661;PMS5003;65579;45.534;6.212;2022-12-28T04:31:16;17;17;
76661;PMS5003;65579;45.534;6.212;2022-12-28T04:33:41;19;17;
76661;PMS5003;65579;45.534;6.212;2022-12-28T04:36:07;37;23;
76661;PMS5003;65579;45.534;6.212;2022-12-28T04:38:32;26;25;
76661;PMS5003;65579;45.534;6.212;2022-12-28T04:40:57;17;15;
76661;PMS5003;65579;45.534;6.212;2022-12-28T04:43:23;24;22;
76661;PMS5003;65579;45.534;6.212;2022-12-28T04:48:13;22;21;
76661;PMS5003;65579;45.534;6.212;2022-12-28T04:50:39;22;19;
76661;PMS5003;65579;45.534;6.212;2022-12-28T04:53:04;21;17;
76661;PMS5003;65579;45.534;6.212;2022-12-28T04:55:30;16;16;
76661;PMS5003;65579;45.534;6.212;2022-12-28T04:57:55;25;19;
76661;PMS5003;65579;45.534;6.212;2022-12-28T05:00:21;24;16;
76661;PMS5003;65579;45.534;6.212;2022-12-28T05:02:46;23;17;
76661;PMS5003;65579;45.534;6.212;2022-12-28T05:05:12;17;16;
76661;PMS5003;65579;45.534;6.212;2022-12-28T05:07:37;15;15;
76661;PMS5003;65579;45.534;6.212;2022-12-28T05:10:02;21;15;
76661;PMS5003;65579;45.534;6.212;2022-12-28T05:12:28;23;16;
76661;PMS5003;65579;45.534;6.212;2022-12-28T05:14:53;22;17;
76661;PMS5003;65579;45.534;6.212;2022-12-28T05:17:18;15;15;
76661;PMS5003;65579;45.534;6.212;2022-12-28T05:19:43;25;20;
76661;PMS5003;65579;45.534;6.212;2022-12-28T05:22:09;18;15;
76661;PMS5003;65579;45.534;6.212;2022-12-28T05:24:35;20;14;
76661;PMS5003;65579;45.534;6.212;2022-12-28T05:27:00;25;17;
76661;PMS5003;65579;45.534;6.212;2022-12-28T05:29:26;15;14;
76661;PMS5003;65579;45.534;6.212;2022-12-28T05:31:52;16;14;
76661;PMS5003;65579;45.534;6.212;2022-12-28T05:34:17;16;13;
76661;PMS5003;65579;45.534;6.212;2022-12-28T05:36:42;20;14;
76661;PMS5003;65579;45.534;6.212;2022-12-28T05:39:07;18;16;
76661;PMS5003;65579;45.534;6.212;2022-12-28T05:41:33;26;18;
76661;PMS5003;65579;45.534;6.212;2022-12-28T05:43:58;18;15;
76661;PMS5003;65579;45.534;6.212;2022-12-28T05:46:24;22;16;
76661;PMS5003;65579;45.534;6.212;2022-12-28T05:48:49;21;15;
76661;PMS5003;65579;45.534;6.212;2022-12-28T05:51:14;17;11;
76661;PMS5003;65579;45.534;6.212;2022-12-28T05:53:40;23;15;
76661;PMS5003;65579;45.534;6.212;2022-12-28T05:56:06;16;11;
76661;PMS5003;65579;45.534;6.212;2022-12-28T05:58:31;21;21;
76661;PMS5003;65579;45.534;6.212;2022-12-28T06:01:03;17;13;
76661;PMS5003;65579;45.534;6.212;2022-12-28T06:03:21;19;13;
76661;PMS5003;65579;45.534;6.212;2022-12-28T06:05:47;15;11;
76661;PMS5003;65579;45.534;6.212;2022-12-28T06:08:12;16;14;
76661;PMS5003;65579;45.534;6.212;2022-12-28T06:10:39;16;7;
76661;PMS5003;65579;45.534;6.212;2022-12-28T06:13:03;19;12;
76661;PMS5003;65579;45.534;6.212;2022-12-28T06:15:29;13;10;
76661;PMS5003;65579;45.534;6.212;2022-12-28T06:17:54;9;9;
76661;PMS5003;65579;45.534;6.212;2022-12-28T06:20:20;18;14;
76661;PMS5003;65579;45.534;6.212;2022-12-28T06:22:45;12;8;
76661;PMS5003;65579;45.534;6.212;2022-12-28T06:25:11;16;12;
76661;PMS5003;65579;45.534;6.212;2022-12-28T06:27:37;19;12;
76661;PMS5003;65579;45.534;6.212;2022-12-28T06:30:02;21;15;
76661;PMS5003;65579;45.534;6.212;2022-12-28T06:32:27;12;10;
76661;PMS5003;65579;45.534;6.212;2022-12-28T06:34:53;15;14;
76661;PMS5003;65579;45.534;6.212;2022-12-28T06:37:19;14;13;
76661;PMS5003;65579;45.534;6.212;2022-12-28T06:39:44;10;9;
76661;PMS5003;65579;45.534;6.212;2022-12-28T06:42:10;15;15;
76661;PMS5003;65579;45.534;6.212;2022-12-28T06:44:35;13;12;
76661;PMS5003;65579;45.534;6.212;2022-12-28T06:47:01;15;14;
76661;PMS5003;65579;45.534;6.212;2022-12-28T06:49:27;15;13;
76661;PMS5003;65579;45.534;6.212;2022-12-28T06:51:52;25;18;
76661;PMS5003;65579;45.534;6.212;2022-12-28T06:54:17;21;16;
76661;PMS5003;65579;45.534;6.212;2022-12-28T06:56:43;27;18;
76661;PMS5003;65579;45.534;6.212;2022-12-28T06:59:09;13;10;
76661;PMS5003;65579;45.534;6.212;2022-12-28T07:01:35;19;16;
76661;PMS5003;65579;45.534;6.212;2022-12-28T07:04:00;19;14;
76661;PMS5003;65579;45.534;6.212;2022-12-28T07:06:26;18;16;
76661;PMS5003;65579;45.534;6.212;2022-12-28T07:08:51;21;16;
76661;PMS5003;65579;45.534;6.212;2022-12-28T07:11:16;21;18;
76661;PMS5003;65579;45.534;6.212;2022-12-28T07:13:41;24;21;
76661;PMS5003;65579;45.534;6.212;2022-12-28T07:16:09;20;15;
76661;PMS5003;65579;45.534;6.212;2022-12-28T07:18:33;18;14;
76661;PMS5003;65579;45.534;6.212;2022-12-28T07:20:59;20;16;
76661;PMS5003;65579;45.534;6.212;2022-12-28T07:23:24;17;17;
76661;PMS5003;65579;45.534;6.212;2022-12-28T07:25:49;25;14;
76661;PMS5003;65579;45.534;6.212;2022-12-28T07:28:14;18;16;
76661;PMS5003;65579;45.534;6.212;2022-12-28T07:30:40;19;16;
76661;PMS5003;65579;45.534;6.212;2022-12-28T07:33:05;24;19;
76661;PMS5003;65579;45.534;6.212;2022-12-28T07:35:30;21;20;
76661;PMS5003;65579;45.534;6.212;2022-12-28T07:37:56;24;20;
76661;PMS5003;65579;45.534;6.212;2022-12-28T07:40:21;20;15;
76661;PMS5003;65579;45.534;6.212;2022-12-28T07:42:46;19;14;
76661;PMS5003;65579;45.534;6.212;2022-12-28T07:45:11;14;13;
76661;PMS5003;65579;45.534;6.212;2022-12-28T07:47:37;14;10;
76661;PMS5003;65579;45.534;6.212;2022-12-28T07:50:03;14;13;
76661;PMS5003;65579;45.534;6.212;2022-12-28T07:52:28;24;19;
76661;PMS5003;65579;45.534;6.212;2022-12-28T07:54:53;20;18;
76661;PMS5003;65579;45.534;6.212;2022-12-28T07:57:18;23;18;
76661;PMS5003;65579;45.534;6.212;2022-12-28T07:59:44;22;18;
76661;PMS5003;65579;45.534;6.212;2022-12-28T08:02:09;23;20;
76661;PMS5003;65579;45.534;6.212;2022-12-28T08:04:34;39;29;
76661;PMS5003;65579;45.534;6.212;2022-12-28T08:07:00;29;26;
76661;PMS5003;65579;45.534;6.212;2022-12-28T08:09:25;26;21;
76661;PMS5003;65579;45.534;6.212;2022-12-28T08:11:50;25;25;
76661;PMS5003;65579;45.534;6.212;2022-12-28T08:14:16;21;21;
76661;PMS5003;65579;45.534;6.212;2022-12-28T08:16:42;17;14;
76661;PMS5003;65579;45.534;6.212;2022-12-28T08:19:08;21;19;
76661;PMS5003;65579;45.534;6.212;2022-12-28T08:21:34;17;13;
76661;PMS5003;65579;45.534;6.212;2022-12-28T08:23:58;14;13;
76661;PMS5003;65579;45.534;6.212;2022-12-28T08:26:24;14;14;
76661;PMS5003;65579;45.534;6.212;2022-12-28T08:28:49;31;28;
76661;PMS5003;65579;45.534;6.212;2022-12-28T08:31:14;31;31;
76661;PMS5003;65579;45.534;6.212;2022-12-28T08:33:40;33;29;
76661;PMS5003;65579;45.534;6.212;2022-12-28T08:36:05;31;28;
76661;PMS5003;65579;45.534;6.212;2022-12-28T08:38:31;34;34;
76661;PMS5003;65579;45.534;6.212;2022-12-28T08:40:57;30;28;
76661;PMS5003;65579;45.534;6.212;2022-12-28T08:43:21;33;26;
76661;PMS5003;65579;45.534;6.212;2022-12-28T08:48:12;34;30;
76661;PMS5003;65579;45.534;6.212;2022-12-28T08:50:38;37;34;
76661;PMS5003;65579;45.534;6.212;2022-12-28T08:53:03;43;36;
76661;PMS5003;65579;45.534;6.212;2022-12-28T08:55:29;37;31;
76661;PMS5003;65579;45.534;6.212;2022-12-28T08:57:54;51;35;
76661;PMS5003;65579;45.534;6.212;2022-12-28T09:00:19;38;34;
76661;PMS5003;65579;45.534;6.212;2022-12-28T09:02:44;38;33;
76661;PMS5003;65579;45.534;6.212;2022-12-28T09:05:10;47;43;
76661;PMS5003;65579;45.534;6.212;2022-12-28T09:07:35;25;19;
76661;PMS5003;65579;45.534;6.212;2022-12-28T09:10:00;29;28;
76661;PMS5003;65579;45.534;6.212;2022-12-28T09:12:25;28;25;
76661;PMS5003;65579;45.534;6.212;2022-12-28T09:14:50;28;27;
76661;PMS5003;65579;45.534;6.212;2022-12-28T09:17:16;29;24;
76661;PMS5003;65579;45.534;6.212;2022-12-28T09:19:41;35;30;
76661;PMS5003;65579;45.534;6.212;2022-12-28T09:22:07;42;40;
76661;PMS5003;65579;45.534;6.212;2022-12-28T09:24:32;34;28;
76661;PMS5003;65579;45.534;6.212;2022-12-28T09:26:58;30;24;
76661;PMS5003;65579;45.534;6.212;2022-12-28T09:29:23;27;24;
76661;PMS5003;65579;45.534;6.212;2022-12-28T09:31:49;22;22;
76661;PMS5003;65579;45.534;6.212;2022-12-28T09:34:14;19;17;
76661;PMS5003;65579;45.534;6.212;2022-12-28T09:36:39;20;18;
76661;PMS5003;65579;45.534;6.212;2022-12-28T09:39:06;28;25;
76661;PMS5003;65579;45.534;6.212;2022-12-28T09:41:32;23;22;
76661;PMS5003;65579;45.534;6.212;2022-12-28T09:46:24;17;17;
76661;PMS5003;65579;45.534;6.212;2022-12-28T09:48:49;25;23;
76661;PMS5003;65579;45.534;6.212;2022-12-28T09:51:13;43;36;
76661;PMS5003;65579;45.534;6.212;2022-12-28T09:53:38;51;44;
76661;PMS5003;65579;45.534;6.212;2022-12-28T09:56:05;54;47;
76661;PMS5003;65579;45.534;6.212;2022-12-28T09:58:30;54;46;
76661;PMS5003;65579;45.534;6.212;2022-12-28T10:00:56;153;143;
76661;PMS5003;65579;45.534;6.212;2022-12-28T10:03:21;74;67;
76661;PMS5003;65579;45.534;6.212;2022-12-28T10:05:46;64;61;
76661;PMS5003;65579;45.534;6.212;2022-12-28T10:08:13;64;61;
76661;PMS5003;65579;45.534;6.212;2022-12-28T10:10:38;62;59;
76661;PMS5003;65579;45.534;6.212;2022-12-28T10:13:09;48;46;
76661;PMS5003;65579;45.534;6.212;2022-12-28T10:15:28;40;37;
76661;PMS5003;65579;45.534;6.212;2022-12-28T10:17:54;53;52;
76661;PMS5003;65579;45.534;6.212;2022-12-28T10:20:20;56;46;
76661;PMS5003;65579;45.534;6.212;2022-12-28T10:22:46;45;43;
76661;PMS5003;65579;45.534;6.212;2022-12-28T10:25:12;69;67;
76661;PMS5003;65579;45.534;6.212;2022-12-28T10:27:35;51;47;
76661;PMS5003;65579;45.534;6.212;2022-12-28T10:30:01;62;55;
76661;PMS5003;65579;45.534;6.212;2022-12-28T10:32:26;102;93;
76661;PMS5003;65579;45.534;6.212;2022-12-28T10:34:54;53;52;
76661;PMS5003;65579;45.534;6.212;2022-12-28T10:37:17;131;119;
76661;PMS5003;65579;45.534;6.212;2022-12-28T10:39:46;93;85;
76661;PMS5003;65579;45.534;6.212;2022-12-28T10:44:35;143;140;
76661;PMS5003;65579;45.534;6.212;2022-12-28T10:47:01;105;103;
76661;PMS5003;65579;45.534;6.212;2022-12-28T10:49:26;114;100;
76661;PMS5003;65579;45.534;6.212;2022-12-28T10:51:59;89;81;
76661;PMS5003;65579;45.534;6.212;2022-12-28T10:56:43;78;68;
76661;PMS5003;65579;45.534;6.212;2022-12-28T11:01:32;121;102;
76661;PMS5003;65579;45.534;6.212;2022-12-28T11:03:59;83;73;
76661;PMS5003;65579;45.534;6.212;2022-12-28T11:06:23;80;72;
76661;PMS5003;65579;45.534;6.212;2022-12-28T11:11:18;69;67;
76661;PMS5003;65579;45.534;6.212;2022-12-28T11:13:38;65;57;
76661;PMS5003;65579;45.534;6.212;2022-12-28T11:16:07;36;35;
76661;PMS5003;65579;45.534;6.212;2022-12-28T11:18:30;52;49;
76661;PMS5003;65579;45.534;6.212;2022-12-28T11:20:56;44;41;
76661;PMS5003;65579;45.534;6.212;2022-12-28T11:23:22;55;54;
76661;PMS5003;65579;45.534;6.212;2022-12-28T11:25:47;42;38;
76661;PMS5003;65579;45.534;6.212;2022-12-28T11:28:13;35;32;
76661;PMS5003;65579;45.534;6.212;2022-12-28T11:30:38;42;41;
76661;PMS5003;65579;45.534;6.212;2022-12-28T11:33:04;32;31;
76661;PMS5003;65579;45.534;6.212;2022-12-28T11:35:30;27;22;
76661;PMS5003;65579;45.534;6.212;2022-12-28T11:37:55;16;16;
76661;PMS5003;65579;45.534;6.212;2022-12-28T11:42:52;14;12;
76661;PMS5003;65579;45.534;6.212;2022-12-28T11:45:11;14;14;
76661;PMS5003;65579;45.534;6.212;2022-12-28T11:47:36;9;9;
76661;PMS5003;65579;45.534;6.212;2022-12-28T11:54:53;4;4;
76661;PMS5003;65579;45.534;6.212;2022-12-28T11:59:44;5;5;
76661;PMS5003;65579;45.534;6.212;2022-12-28T12:04:36;4;4;
76661;PMS5003;65579;45.534;6.212;2022-12-28T12:09:35;5;3;
76661;PMS5003;65579;45.534;6.212;2022-12-28T12:11:52;4;4;
76661;PMS5003;65579;45.534;6.212;2022-12-28T12:14:20;9;9;
76661;PMS5003;65579;45.534;6.212;2022-12-28T12:16:45;16;15;
76661;PMS5003;65579;45.534;6.212;2022-12-28T12:19:07;22;21;
76661;PMS5003;65579;45.534;6.212;2022-12-28T12:21:34;12;12;
76661;PMS5003;65579;45.534;6.212;2022-12-28T12:24:01;13;11;
76661;PMS5003;65579;45.534;6.212;2022-12-28T12:26:25;15;10;
76661;PMS5003;65579;45.534;6.212;2022-12-28T12:28:49;8;8;
76661;PMS5003;65579;45.534;6.212;2022-12-28T12:31:17;4;4;
76661;PMS5003;65579;45.534;6.212;2022-12-28T12:33:41;5;5;
76661;PMS5003;65579;45.534;6.212;2022-12-28T12:36:11;6;6;
76661;PMS5003;65579;45.534;6.212;2022-12-28T12:38:35;8;5;
76661;PMS5003;65579;45.534;6.212;2022-12-28T12:43:25;5;5;
76661;PMS5003;65579;45.534;6.212;2022-12-28T12:45:49;9;5;
76661;PMS5003;65579;45.534;6.212;2022-12-28T12:53:05;9;8;
76661;PMS5003;65579;45.534;6.212;2022-12-28T12:55:34;8;8;
76661;PMS5003;65579;45.534;6.212;2022-12-28T12:57:56;5;5;
76661;PMS5003;65579;45.534;6.212;2022-12-28T13:00:20;4;4;
76661;PMS5003;65579;45.534;6.212;2022-12-28T13:02:50;4;3;
76661;PMS5003;65579;45.534;6.212;2022-12-28T13:05:13;4;4;
76661;PMS5003;65579;45.534;6.212;2022-12-28T13:07:38;9;4;
76661;PMS5003;65579;45.534;6.212;2022-12-28T13:10:02;2;2;
76661;PMS5003;65579;45.534;6.212;2022-12-28T13:12:27;3;3;
76661;PMS5003;65579;45.534;6.212;2022-12-28T13:14:55;2;2;
76661;PMS5003;65579;45.534;6.212;2022-12-28T13:17:18;4;2;
76661;PMS5003;65579;45.534;6.212;2022-12-28T13:19:44;2;2;
76661;PMS5003;65579;45.534;6.212;2022-12-28T13:24:34;2;2;
76661;PMS5003;65579;45.534;6.212;2022-12-28T13:27:00;3;3;
76661;PMS5003;65579;45.534;6.212;2022-12-28T13:29:26;3;3;
76661;PMS5003;65579;45.534;6.212;2022-12-28T13:31:51;4;4;
76661;PMS5003;65579;45.534;6.212;2022-12-28T13:34:17;2;2;
76661;PMS5003;65579;45.534;6.212;2022-12-28T13:36:46;6;3;
76661;PMS5003;65579;45.534;6.212;2022-12-28T13:39:10;3;2;
76661;PMS5003;65579;45.534;6.212;2022-12-28T13:41:32;1;1;
76661;PMS5003;65579;45.534;6.212;2022-12-28T13:46:23;2;2;
76661;PMS5003;65579;45.534;6.212;2022-12-28T13:48:49;3;1;
76661;PMS5003;65579;45.534;6.212;2022-12-28T13:51:14;1;1;
76661;PMS5003;65579;45.534;6.212;2022-12-28T13:53:39;1;1;
76661;PMS5003;65579;45.534;6.212;2022-12-28T13:56:05;1;1;
76661;PMS5003;65579;45.534;6.212;2022-12-28T13:58:31;3;3;
76661;PMS5003;65579;45.534;6.212;2022-12-28T14:00:55;15;15;
76661;PMS5003;65579;45.534;6.212;2022-12-28T14:03:20;3;3;
76661;PMS5003;65579;45.534;6.212;2022-12-28T14:05:48;2;2;
76661;PMS5003;65579;45.534;6.212;2022-12-28T14:08:11;2;2;
76661;PMS5003;65579;45.534;6.212;2022-12-28T14:10:37;1;1;
76661;PMS5003;65579;45.534;6.212;2022-12-28T14:13:02;1;1;
76661;PMS5003;65579;45.534;6.212;2022-12-28T14:15:27;1;1;
76661;PMS5003;65579;45.534;6.212;2022-12-28T14:17:53;2;2;
76661;PMS5003;65579;45.534;6.212;2022-12-28T14:20:18;4;4;
76661;PMS5003;65579;45.534;6.212;2022-12-28T14:22:44;24;24;
76661;PMS5003;65579;45.534;6.212;2022-12-28T14:25:10;12;10;
76661;PMS5003;65579;45.534;6.212;2022-12-28T14:27:37;6;6;
76661;PMS5003;65579;45.534;6.212;2022-12-28T14:30:00;36;32;
76661;PMS5003;65579;45.534;6.212;2022-12-28T14:32:25;11;11;
76661;PMS5003;65579;45.534;6.212;2022-12-28T14:34:54;4;4;
76661;PMS5003;65579;45.534;6.212;2022-12-28T14:37:19;10;8;
76661;PMS5003;65579;45.534;6.212;2022-12-28T14:39:42;10;7;
76661;PMS5003;65579;45.534;6.212;2022-12-28T14:44:35;7;7;
76661;PMS5003;65579;45.534;6.212;2022-12-28T14:46:58;12;9;
76661;PMS5003;65579;45.534;6.212;2022-12-28T14:51:49;5;5;
76661;PMS5003;65579;45.534;6.212;2022-12-28T14:54:16;3;3;
76661;PMS5003;65579;45.534;6.212;2022-12-28T14:56:39;4;4;
76661;PMS5003;65579;45.534;6.212;2022-12-28T14:59:05;24;22;
76661;PMS5003;65579;45.534;6.212;2022-12-28T15:03:56;3;2;
76661;PMS5003;65579;45.534;6.212;2022-12-28T15:06:24;1;1;
76661;PMS5003;65579;45.534;6.212;2022-12-28T15:08:47;3;3;
76661;PMS5003;65579;45.534;6.212;2022-12-28T15:11:12;3;2;
76661;PMS5003;65579;45.534;6.212;2022-12-28T15:13:37;2;2;
76661;PMS5003;65579;45.534;6.212;2022-12-28T15:16:03;2;2;
76661;PMS5003;65579;45.534;6.212;2022-12-28T15:18:28;0;0;
76661;PMS5003;65579;45.534;6.212;2022-12-28T15:20:53;1;1;
76661;PMS5003;65579;45.534;6.212;2022-12-28T15:23:19;14;14;
76661;PMS5003;65579;45.534;6.212;2022-12-28T15:25:44;6;6;
76661;PMS5003;65579;45.534;6.212;2022-12-28T15:28:10;4;4;
76661;PMS5003;65579;45.534;6.212;2022-12-28T15:30:37;6;6;
76661;PMS5003;65579;45.534;6.212;2022-12-28T15:33:00;6;6;
76661;PMS5003;65579;45.534;6.212;2022-12-28T15:35:26;9;9;
76661;PMS5003;65579;45.534;6.212;2022-12-28T15:37:51;3;3;
76661;PMS5003;65579;45.534;6.212;2022-12-28T15:40:16;2;2;
76661;PMS5003;65579;45.534;6.212;2022-12-28T15:42:42;4;4;
76661;PMS5003;65579;45.534;6.212;2022-12-28T15:45:08;6;5;
76661;PMS5003;65579;45.534;6.212;2022-12-28T15:47:33;5;4;
76661;PMS5003;65579;45.534;6.212;2022-12-28T15:49:58;4;4;
76661;PMS5003;65579;45.534;6.212;2022-12-28T15:52:23;5;5;
76661;PMS5003;65579;45.534;6.212;2022-12-28T15:54:49;12;10;
76661;PMS5003;65579;45.534;6.212;2022-12-28T15:57:14;5;5;
76661;PMS5003;65579;45.534;6.212;2022-12-28T15:59:40;18;18;
76661;PMS5003;65579;45.534;6.212;2022-12-28T16:02:05;25;25;
76661;PMS5003;65579;45.534;6.212;2022-12-28T16:04:30;52;46;
76661;PMS5003;65579;45.534;6.212;2022-12-28T16:06:56;14;14;
76661;PMS5003;65579;45.534;6.212;2022-12-28T16:09:21;23;21;
76661;PMS5003;65579;45.534;6.212;2022-12-28T16:11:46;6;6;
76661;PMS5003;65579;45.534;6.212;2022-12-28T16:14:13;3;3;
76661;PMS5003;65579;45.534;6.212;2022-12-28T16:16:37;3;3;
76661;PMS5003;65579;45.534;6.212;2022-12-28T16:19:03;5;5;
76661;PMS5003;65579;45.534;6.212;2022-12-28T16:21:27;3;3;
76661;PMS5003;65579;45.534;6.212;2022-12-28T16:23:53;11;10;
76661;PMS5003;65579;45.534;6.212;2022-12-28T16:26:19;19;19;
76661;PMS5003;65579;45.534;6.212;2022-12-28T16:28:44;8;8;
76661;PMS5003;65579;45.534;6.212;2022-12-28T16:33:34;18;16;
76661;PMS5003;65579;45.534;6.212;2022-12-28T16:36:00;10;6;
76661;PMS5003;65579;45.534;6.212;2022-12-28T16:38:27;183;163;
76661;PMS5003;65579;45.534;6.212;2022-12-28T16:40:54;64;53;
76661;PMS5003;65579;45.534;6.212;2022-12-28T16:43:17;14;13;
76661;PMS5003;65579;45.534;6.212;2022-12-28T16:45:43;12;12;
76661;PMS5003;65579;45.534;6.212;2022-12-28T16:48:10;18;15;
76661;PMS5003;65579;45.534;6.212;2022-12-28T16:50:33;14;14;
76661;PMS5003;65579;45.534;6.212;2022-12-28T16:52:57;10;10;
76661;PMS5003;65579;45.534;6.212;2022-12-28T16:55:23;22;19;
76661;PMS5003;65579;45.534;6.212;2022-12-28T16:57:48;16;16;
76661;PMS5003;65579;45.534;6.212;2022-12-28T17:00:14;16;13;
76661;PMS5003;65579;45.534;6.212;2022-12-28T17:02:39;16;15;
76661;PMS5003;65579;45.534;6.212;2022-12-28T17:05:05;20;19;
76661;PMS5003;65579;45.534;6.212;2022-12-28T17:07:30;18;15;
76661;PMS5003;65579;45.534;6.212;2022-12-28T17:09:54;19;19;